Terminal Aerodrome Forecast
Issued by NWS

Home | Current Version | Previous Version | Text Only | Print | Product List | Glossary On
Versions: 1 2 3 4 5 6 7 8 9 10 11 12 13 14 15 16 17 18 19 20 21 22 23 24 25 26
559
FTUS43 KLOT 141502 AAA
TAFDPA
TAF AMD
KDPA 141502Z 1415/1512 13015G21KT P6SM OVC050
     FM141700 14014G20KT 2SM -SN BR OVC015
     FM141730 14014G20KT 1SM -SN BR OVC012
      TEMPO 1418/1420 3/4SM -SN BLSN BR OVC009
     FM142100 15013G19KT 2SM -SN BR OVC010
     FM150200 16012KT 6SM -SN BR OVC008=

USA.gov is the U.S. government's official web portal to all federal, state and local government web resources and services.